createdAt,value
2018-07-21T00:01:38.608Z,7.60
2018-07-21T00:03:43.171Z,9.10
2018-07-21T00:05:47.841Z,7.93
2018-07-21T00:07:52.390Z,7.80
2018-07-21T00:09:57.096Z,8.10
2018-07-21T00:12:01.701Z,7.33
2018-07-21T00:14:06.492Z,9.00
2018-07-21T00:16:11.021Z,7.90
2018-07-21T00:18:15.635Z,7.50
2018-07-21T00:20:20.406Z,7.07
2018-07-21T00:22:25.541Z,7.53
2018-07-21T00:24:30.951Z,8.67
2018-07-21T00:26:41.138Z,7.70
2018-07-21T00:28:45.652Z,7.30
2018-07-21T00:30:50.197Z,7.20
2018-07-21T00:32:54.736Z,7.77
2018-07-21T00:34:59.358Z,8.30
2018-07-21T00:37:04.508Z,7.40
2018-07-21T00:39:12.214Z,7.10
2018-07-21T00:41:17.508Z,8.33
2018-07-21T00:43:22.711Z,8.50
2018-07-21T00:45:27.376Z,8.33
2018-07-21T00:47:32.220Z,8.37
2018-07-21T00:49:36.704Z,8.20
2018-07-21T00:51:41.220Z,8.00
2018-07-21T00:53:46.314Z,8.80
2018-07-21T00:55:50.996Z,8.83
2018-07-21T00:57:56.074Z,8.00
2018-07-21T01:00:01.247Z,7.33
2018-07-21T01:02:06.835Z,8.40
2018-07-21T01:04:14.464Z,7.57
2018-07-21T01:06:20.337Z,7.73
2018-07-21T01:08:24.931Z,7.97
2018-07-21T01:10:29.506Z,7.20
2018-07-21T01:12:34.156Z,6.73
2018-07-21T01:14:38.700Z,6.90
2018-07-21T01:16:43.238Z,6.17
2018-07-21T01:18:47.783Z,6.03
2018-07-21T01:20:52.357Z,6.43
2018-07-21T01:22:56.888Z,6.57
2018-07-21T01:25:01.359Z,6.03
2018-07-21T01:27:05.928Z,7.40
2018-07-21T01:29:10.381Z,6.40
2018-07-21T01:31:14.924Z,6.90
2018-07-21T01:33:19.481Z,6.60
2018-07-21T01:35:24.049Z,7.17
2018-07-21T01:37:28.643Z,7.30
2018-07-21T01:39:33.176Z,6.37
2018-07-21T01:41:37.842Z,7.27
2018-07-21T01:43:42.419Z,7.07
2018-07-21T01:45:47.171Z,6.83
2018-07-21T01:47:51.795Z,7.43
2018-07-21T01:49:56.332Z,8.10
2018-07-21T01:52:00.959Z,8.00
2018-07-21T01:54:05.637Z,8.53
2018-07-21T01:56:10.175Z,8.03
2018-07-21T01:58:14.720Z,8.37
2018-07-21T02:00:18.836Z,8.50
2018-07-21T02:02:23.474Z,9.27
2018-07-21T02:04:27.992Z,10.27
2018-07-21T02:06:32.614Z,10.10
2018-07-21T02:08:37.331Z,10.63
2018-07-21T02:10:42.044Z,11.50
2018-07-21T02:12:47.055Z,11.20
2018-07-21T02:14:51.663Z,11.30
2018-07-21T02:16:56.429Z,10.57
2018-07-21T02:19:01.042Z,11.70
2018-07-21T02:21:05.681Z,11.50
2018-07-21T02:23:10.232Z,12.50
2018-07-21T02:25:14.747Z,11.40
2018-07-21T02:27:19.436Z,11.30
2018-07-21T02:29:24.558Z,11.50
2018-07-21T02:31:29.214Z,12.40
2018-07-21T02:33:33.737Z,12.30
2018-07-21T02:35:38.356Z,11.40
2018-07-21T02:37:43.505Z,12.50
2018-07-21T02:39:48.007Z,11.27
2018-07-21T02:41:52.572Z,11.60
2018-07-21T02:43:57.093Z,10.40
2018-07-21T02:46:01.651Z,10.70
2018-07-21T02:48:06.390Z,9.40
2018-07-21T02:50:10.846Z,10.03
2018-07-21T02:52:15.377Z,10.37
2018-07-21T02:54:19.605Z,9.70
2018-07-21T02:56:24.059Z,9.90
2018-07-21T02:58:29.370Z,9.90
2018-07-21T03:00:33.937Z,9.90
2018-07-21T03:02:38.548Z,9.77
2018-07-21T03:04:43.116Z,9.50
2018-07-21T03:06:47.744Z,11.03
2018-07-21T03:08:52.252Z,11.43
2018-07-21T03:10:56.906Z,10.23
2018-07-21T03:13:01.469Z,9.27
2018-07-21T03:15:06.190Z,9.57
2018-07-21T03:17:10.698Z,9.60
2018-07-21T03:19:15.219Z,10.10
2018-07-21T03:21:19.784Z,9.30
2018-07-21T03:23:24.348Z,11.10
2018-07-21T03:25:28.920Z,9.30
2018-07-21T03:27:33.782Z,10.17
2018-07-21T03:29:38.367Z,9.83
2018-07-21T03:31:42.928Z,9.40
2018-07-21T03:33:50.385Z,9.17
2018-07-21T03:35:54.909Z,10.67
2018-07-21T03:37:59.524Z,10.47
2018-07-21T03:40:04.227Z,10.77
2018-07-21T03:42:08.749Z,10.30
2018-07-21T03:44:13.263Z,9.47
2018-07-21T03:46:17.514Z,9.93
2018-07-21T03:48:21.932Z,9.90
2018-07-21T03:50:26.493Z,9.73
2018-07-21T03:52:31.088Z,8.77
2018-07-21T03:54:35.713Z,8.67
2018-07-21T03:56:40.396Z,9.20
2018-07-21T03:58:44.996Z,8.77
2018-07-21T04:00:49.528Z,8.83
2018-07-21T04:02:54.125Z,9.57
2018-07-21T04:04:58.622Z,9.47
2018-07-21T04:07:03.312Z,9.93
2018-07-21T04:09:10.085Z,9.77
2018-07-21T04:11:14.609Z,10.57
2018-07-21T04:13:19.154Z,10.23
2018-07-21T04:15:23.625Z,10.10
2018-07-21T04:17:28.785Z,10.23
2018-07-21T04:19:33.282Z,10.60
2018-07-21T04:21:37.771Z,10.00
2018-07-21T04:23:42.342Z,11.10
2018-07-21T04:25:46.870Z,11.50
2018-07-21T04:27:51.406Z,10.70
2018-07-21T04:30:02.366Z,10.47
2018-07-21T04:32:06.958Z,10.90
2018-07-21T04:34:11.491Z,11.83
2018-07-21T04:36:16.020Z,12.70
2018-07-21T04:38:20.613Z,13.00
2018-07-21T04:40:25.727Z,11.27
2018-07-21T04:42:30.292Z,11.60
2018-07-21T04:44:35.003Z,14.20
2018-07-21T04:46:39.564Z,11.50
2018-07-21T04:48:44.138Z,12.70
2018-07-21T04:50:48.663Z,13.17
2018-07-21T04:52:53.284Z,12.90
2018-07-21T04:54:57.768Z,14.03
2018-07-21T04:57:02.337Z,13.33
2018-07-21T04:59:06.868Z,12.10
2018-07-21T05:01:11.384Z,13.30
2018-07-21T05:03:15.932Z,12.80
2018-07-21T05:05:20.462Z,12.90
2018-07-21T05:07:25.051Z,14.90
2018-07-21T05:09:29.590Z,14.27
2018-07-21T05:11:34.103Z,14.67
2018-07-21T05:13:38.648Z,16.30
2018-07-21T05:15:43.202Z,15.30
2018-07-21T05:17:47.700Z,15.43
2018-07-21T05:19:52.189Z,14.03
2018-07-21T05:21:56.724Z,13.07
2018-07-21T05:24:01.266Z,14.80
2018-07-21T05:26:06.283Z,14.30
2018-07-21T05:28:10.855Z,14.00
2018-07-21T05:30:15.376Z,12.90
2018-07-21T05:32:19.894Z,14.27
2018-07-21T05:34:24.448Z,15.27
2018-07-21T05:36:29.030Z,14.90
2018-07-21T05:38:33.621Z,14.30
2018-07-21T05:40:38.209Z,14.20
2018-07-21T05:42:42.703Z,12.80
2018-07-21T05:44:47.871Z,12.10
2018-07-21T05:46:52.407Z,12.13
2018-07-21T05:48:57.025Z,12.00
2018-07-21T05:51:01.558Z,12.23
2018-07-21T05:53:06.098Z,12.53
2018-07-21T05:55:10.748Z,11.57
2018-07-21T05:57:15.300Z,11.00
2018-07-21T05:59:19.931Z,12.90
2018-07-21T06:01:24.487Z,14.50
2018-07-21T06:03:29.077Z,13.60
2018-07-21T06:05:34.616Z,11.90
2018-07-21T06:07:39.093Z,10.70
2018-07-21T06:09:44.220Z,9.60
2018-07-21T06:11:48.815Z,12.37
2018-07-21T06:13:53.427Z,11.13
2018-07-21T06:15:57.915Z,12.30
2018-07-21T06:18:02.468Z,11.03
2018-07-21T06:20:08.037Z,12.73
2018-07-21T06:22:12.656Z,13.60
2018-07-21T06:24:17.268Z,13.40
2018-07-21T06:26:21.857Z,12.93
2018-07-21T06:28:26.483Z,10.30
2018-07-21T06:30:31.035Z,13.13
2018-07-21T06:32:35.603Z,11.40
2018-07-21T06:34:40.194Z,12.37
2018-07-21T06:36:44.805Z,10.80
2018-07-21T06:38:50.634Z,12.57
2018-07-21T06:40:55.169Z,12.53
2018-07-21T06:42:59.757Z,12.60
2018-07-21T06:45:04.416Z,14.20
2018-07-21T06:47:08.904Z,12.57
2018-07-21T06:49:13.499Z,12.13
2018-07-21T06:51:18.051Z,10.70
2018-07-21T06:53:22.701Z,11.27
2018-07-21T06:55:27.283Z,10.83
2018-07-21T06:57:31.914Z,11.50
2018-07-21T06:59:38.772Z,10.50
2018-07-21T07:01:44.686Z,11.60
2018-07-21T07:03:49.319Z,11.80
2018-07-21T07:05:53.834Z,12.43
2018-07-21T07:07:58.382Z,9.83
2018-07-21T07:10:03.117Z,10.50
2018-07-21T07:12:07.700Z,11.87
2018-07-21T07:14:12.329Z,11.23
2018-07-21T07:16:16.872Z,11.13
2018-07-21T07:18:21.314Z,11.40
2018-07-21T07:20:25.806Z,9.90
2018-07-21T07:22:31.288Z,10.33
2018-07-21T07:24:35.882Z,10.70
2018-07-21T07:26:40.494Z,10.07
2018-07-21T07:28:45.036Z,9.97
2018-07-21T07:30:49.596Z,9.67
2018-07-21T07:32:54.726Z,9.70
2018-07-21T07:34:59.897Z,9.50
2018-07-21T07:37:04.646Z,10.13
2018-07-21T07:39:10.844Z,10.30
2018-07-21T07:41:15.548Z,10.00
2018-07-21T07:43:20.129Z,10.00
2018-07-21T07:45:24.684Z,10.60
2018-07-21T07:47:28.880Z,10.33
2018-07-21T07:49:33.436Z,9.50
2018-07-21T07:51:37.973Z,9.67
2018-07-21T07:53:43.491Z,9.40
2018-07-21T07:55:48.169Z,9.70
2018-07-21T07:57:52.759Z,8.83
2018-07-21T07:59:57.319Z,10.00
2018-07-21T08:02:01.864Z,9.20
2018-07-21T08:04:06.537Z,9.53
2018-07-21T08:06:11.001Z,9.73
2018-07-21T08:08:15.501Z,9.60
2018-07-21T08:10:20.033Z,10.00
2018-07-21T08:12:24.554Z,10.33
2018-07-21T08:14:29.194Z,10.13
2018-07-21T08:16:33.696Z,10.10
2018-07-21T08:18:38.949Z,9.80
2018-07-21T08:20:43.559Z,9.33
2018-07-21T08:22:48.402Z,9.27
2018-07-21T08:24:53.568Z,9.30
2018-07-21T08:26:58.118Z,9.00
2018-07-21T08:29:02.792Z,10.30
2018-07-21T08:31:07.462Z,10.40
2018-07-21T08:33:11.914Z,9.50
2018-07-21T08:35:16.615Z,10.20
2018-07-21T08:37:21.263Z,9.53
2018-07-21T08:39:26.373Z,10.33
2018-07-21T08:41:30.928Z,8.90
2018-07-21T08:43:35.637Z,10.33
2018-07-21T08:45:40.870Z,9.27
2018-07-21T08:47:45.465Z,10.00
2018-07-21T08:49:50.003Z,9.73
2018-07-21T08:51:54.482Z,9.60
2018-07-21T08:53:59.096Z,9.20
2018-07-21T08:56:03.650Z,9.57
2018-07-21T08:58:08.210Z,11.00
2018-07-21T09:00:12.788Z,10.67
2018-07-21T09:02:17.281Z,10.17
2018-07-21T09:04:21.748Z,10.10
2018-07-21T09:06:26.335Z,10.27
2018-07-21T09:08:30.830Z,9.97
2018-07-21T09:10:35.434Z,10.30
2018-07-21T09:12:39.980Z,10.23
2018-07-21T09:14:44.571Z,8.73
2018-07-21T09:16:49.476Z,9.23
2018-07-21T09:18:53.958Z,10.13
2018-07-21T09:20:58.808Z,9.57
2018-07-21T09:23:03.471Z,9.03
2018-07-21T09:25:08.019Z,9.33
2018-07-21T09:27:12.538Z,9.70
2018-07-21T09:29:17.061Z,9.70
2018-07-21T09:31:22.140Z,9.87
2018-07-21T09:33:26.688Z,8.10
2018-07-21T09:35:31.307Z,8.50
2018-07-21T09:37:36.951Z,9.40
2018-07-21T09:39:41.552Z,8.90
2018-07-21T09:41:46.278Z,8.27
2018-07-21T09:43:50.759Z,7.90
2018-07-21T09:45:55.375Z,8.57
2018-07-21T09:48:00.164Z,8.77
2018-07-21T09:50:05.713Z,8.97
2018-07-21T09:52:10.429Z,9.57
2018-07-21T09:54:14.999Z,8.43
2018-07-21T09:56:19.596Z,7.90
2018-07-21T09:58:24.185Z,7.63
2018-07-21T10:00:34.147Z,9.40
2018-07-21T10:02:38.822Z,8.30
2018-07-21T10:04:43.488Z,8.97
2018-07-21T10:06:48.284Z,9.10
2018-07-21T10:08:53.058Z,8.93
2018-07-21T10:10:58.139Z,9.13
2018-07-21T10:13:02.980Z,8.50
2018-07-21T10:15:07.976Z,8.77
2018-07-21T10:17:12.900Z,9.27
2018-07-21T10:19:17.513Z,8.57
2018-07-21T10:21:24.026Z,8.20
2018-07-21T10:23:28.847Z,8.17
2018-07-21T10:25:38.925Z,7.47
2018-07-21T10:27:48.753Z,7.60
2018-07-21T10:29:53.524Z,7.60
2018-07-21T10:31:59.567Z,7.73
2018-07-21T10:34:04.195Z,8.40
2018-07-21T10:36:08.728Z,8.17
2018-07-21T10:38:13.288Z,7.70
2018-07-21T10:40:17.936Z,9.00
2018-07-21T10:42:22.574Z,8.10
2018-07-21T10:44:27.102Z,8.60
2018-07-21T10:46:31.903Z,8.67
2018-07-21T10:48:36.602Z,7.90
2018-07-21T10:50:41.244Z,7.20
2018-07-21T10:52:45.799Z,7.47
2018-07-21T10:54:50.368Z,8.07
2018-07-21T10:56:54.951Z,7.73
2018-07-21T10:58:59.524Z,8.60
2018-07-21T11:01:04.104Z,7.73
2018-07-21T11:03:08.613Z,6.87
2018-07-21T11:05:13.132Z,7.00
2018-07-21T11:07:17.682Z,7.40
2018-07-21T11:09:22.122Z,7.60
2018-07-21T11:11:26.791Z,7.97
2018-07-21T11:13:31.337Z,8.50
2018-07-21T11:15:35.868Z,8.40
2018-07-21T11:17:40.347Z,8.97
2018-07-21T11:19:44.821Z,7.50
2018-07-21T11:21:49.384Z,8.13
2018-07-21T11:23:53.885Z,7.30
2018-07-21T11:25:58.445Z,8.63
2018-07-21T11:28:02.935Z,7.13
2018-07-21T11:30:08.037Z,7.10
2018-07-21T11:32:12.597Z,6.80
2018-07-21T11:34:17.050Z,7.27
2018-07-21T11:36:21.542Z,7.20
2018-07-21T11:38:26.097Z,7.47
2018-07-21T11:40:30.573Z,6.80
2018-07-21T11:42:35.130Z,6.00
2018-07-21T11:44:39.604Z,6.30
2018-07-21T11:46:44.118Z,6.67
2018-07-21T11:48:48.590Z,5.87
2018-07-21T11:50:53.086Z,6.20
2018-07-21T11:52:57.604Z,6.70
2018-07-21T11:55:02.093Z,5.90
2018-07-21T11:57:06.662Z,6.60
2018-07-21T11:59:11.155Z,6.10
2018-07-21T12:01:15.714Z,5.10
2018-07-21T12:03:20.146Z,5.20
2018-07-21T12:05:24.674Z,5.90
2018-07-21T12:07:29.287Z,5.33
2018-07-21T12:09:33.701Z,5.90
2018-07-21T12:11:38.902Z,6.20
2018-07-21T12:13:43.398Z,6.43
2018-07-21T12:15:47.826Z,5.40
2018-07-21T12:17:52.384Z,5.60
2018-07-21T12:19:56.493Z,5.30
2018-07-21T12:22:00.886Z,6.50
2018-07-21T12:24:05.408Z,5.63
2018-07-21T12:26:09.875Z,5.57
2018-07-21T12:28:14.462Z,5.23
2018-07-21T12:30:18.932Z,5.30
2018-07-21T12:32:23.467Z,5.40
2018-07-21T12:34:27.951Z,5.17
2018-07-21T12:36:32.507Z,5.43
2018-07-21T12:38:36.978Z,5.00
2018-07-21T12:40:41.414Z,4.70
2018-07-21T12:42:45.913Z,4.80
2018-07-21T12:44:50.369Z,5.80
2018-07-21T12:46:55.041Z,5.20
2018-07-21T12:48:59.664Z,4.83
2018-07-21T12:51:04.573Z,5.20
2018-07-21T12:53:09.322Z,5.63
2018-07-21T12:55:13.804Z,5.53
2018-07-21T12:57:18.439Z,5.20
2018-07-21T12:59:23.547Z,5.40
2018-07-21T13:01:28.032Z,4.50
2018-07-21T13:03:32.616Z,4.97
2018-07-21T13:05:37.182Z,4.23
2018-07-21T13:07:41.803Z,4.33
2018-07-21T13:09:46.445Z,4.53
2018-07-21T13:11:50.992Z,4.67
2018-07-21T13:13:55.617Z,4.67
2018-07-21T13:16:00.103Z,5.00
2018-07-21T13:18:04.655Z,4.00
2018-07-21T13:20:09.222Z,5.20
2018-07-21T13:22:13.891Z,4.30
2018-07-21T13:24:18.398Z,4.50
2018-07-21T13:26:22.943Z,4.30
2018-07-21T13:28:27.103Z,3.67
2018-07-21T13:30:31.501Z,4.37
2018-07-21T13:32:36.060Z,3.97
2018-07-21T13:34:40.606Z,18.77
2018-07-21T13:36:45.126Z,3.57
2018-07-21T13:38:49.636Z,4.00
2018-07-21T13:40:54.273Z,4.30
2018-07-21T13:42:58.413Z,4.57
2018-07-21T13:45:02.456Z,4.47
2018-07-21T13:47:06.995Z,4.77
2018-07-21T13:49:11.497Z,4.90
2018-07-21T13:51:16.050Z,4.90
2018-07-21T13:53:20.164Z,4.43
2018-07-21T13:55:24.550Z,4.97
2018-07-21T13:57:29.143Z,5.03
2018-07-21T13:59:33.583Z,5.50
2018-07-21T14:01:38.086Z,5.20
2018-07-21T14:03:43.063Z,6.30
2018-07-21T14:05:47.816Z,5.47
2018-07-21T14:07:52.341Z,5.20
2018-07-21T14:09:56.872Z,5.50
2018-07-21T14:12:01.493Z,5.80
2018-07-21T14:14:06.330Z,5.30
2018-07-21T14:16:10.847Z,5.30
2018-07-21T14:18:15.610Z,5.57
2018-07-21T14:20:20.404Z,5.10
2018-07-21T14:22:25.028Z,5.10
2018-07-21T14:24:29.495Z,5.27
2018-07-21T14:26:34.983Z,4.83
2018-07-21T14:28:39.533Z,5.93
2018-07-21T14:30:44.021Z,6.07
2018-07-21T14:32:48.826Z,5.53
2018-07-21T14:34:53.450Z,5.60
2018-07-21T14:36:57.952Z,5.97
2018-07-21T14:39:02.797Z,5.43
2018-07-21T14:41:07.980Z,5.37
2018-07-21T14:43:18.598Z,5.30
2018-07-21T14:45:23.138Z,5.80
2018-07-21T14:47:28.559Z,5.80
2018-07-21T14:49:33.057Z,5.90
2018-07-21T14:51:37.594Z,6.17
2018-07-21T14:53:42.160Z,6.70
2018-07-21T14:55:46.652Z,6.47
2018-07-21T14:57:51.171Z,7.33
2018-07-21T14:59:56.307Z,6.23
2018-07-21T15:02:00.776Z,6.50
2018-07-21T15:04:05.344Z,6.10
2018-07-21T15:06:09.811Z,6.00
2018-07-21T15:08:14.439Z,5.60
2018-07-21T15:10:19.065Z,6.20
2018-07-21T15:12:23.682Z,6.40
2018-07-21T15:14:28.181Z,6.17
2018-07-21T15:16:32.781Z,6.07
2018-07-21T15:18:37.374Z,6.70
2018-07-21T15:20:41.892Z,6.07
2018-07-21T15:22:46.520Z,6.17
2018-07-21T15:24:51.343Z,6.23
2018-07-21T15:26:57.648Z,6.20
2018-07-21T15:29:02.213Z,6.40
2018-07-21T15:31:07.057Z,5.80
2018-07-21T15:33:11.744Z,5.43
2018-07-21T15:35:17.410Z,4.80
2018-07-21T15:37:22.096Z,5.20
2018-07-21T15:39:26.648Z,5.27
2018-07-21T15:41:31.155Z,4.90
2018-07-21T15:43:35.951Z,4.80
2018-07-21T15:45:40.444Z,5.67
2018-07-21T15:47:45.739Z,5.50
2018-07-21T15:49:50.399Z,5.00
2018-07-21T15:51:55.942Z,5.10
2018-07-21T15:54:00.608Z,4.90
2018-07-21T15:56:05.109Z,5.03
2018-07-21T15:58:10.164Z,4.30
2018-07-21T16:00:14.771Z,5.00
2018-07-21T16:02:19.383Z,4.50
2018-07-21T16:04:23.880Z,4.73
2018-07-21T16:06:28.392Z,4.33
2018-07-21T16:08:32.846Z,5.13
2018-07-21T16:10:37.306Z,5.03
2018-07-21T16:12:41.921Z,4.97
2018-07-21T16:14:46.522Z,6.17
2018-07-21T16:16:51.041Z,5.13
2018-07-21T16:18:55.584Z,5.50
2018-07-21T16:21:00.158Z,5.47
2018-07-21T16:23:04.656Z,5.30
2018-07-21T16:25:09.192Z,4.63
2018-07-21T16:27:13.802Z,4.80
2018-07-21T16:29:17.938Z,5.30
2018-07-21T16:31:22.347Z,5.57
2018-07-21T16:33:26.901Z,4.77
2018-07-21T16:35:32.125Z,4.00
2018-07-21T16:37:36.727Z,4.73
2018-07-21T16:39:43.090Z,4.73
2018-07-21T16:41:47.832Z,4.03
2018-07-21T16:43:52.705Z,4.40
2018-07-21T16:45:57.440Z,4.77
2018-07-21T16:48:02.038Z,4.87
2018-07-21T16:50:06.640Z,4.83
2018-07-21T16:52:11.106Z,4.80
2018-07-21T16:54:15.800Z,5.03
2018-07-21T16:56:20.317Z,4.80
2018-07-21T16:58:25.014Z,4.80
2018-07-21T17:00:29.740Z,5.17
2018-07-21T17:02:35.972Z,5.20
2018-07-21T17:04:40.775Z,4.77
2018-07-21T17:06:45.421Z,5.83
2018-07-21T17:08:51.207Z,7.17
2018-07-21T17:10:55.842Z,6.80
2018-07-21T17:13:00.413Z,6.00
2018-07-21T17:15:05.702Z,5.27
2018-07-21T17:17:11.372Z,5.40
2018-07-21T17:19:16.215Z,5.80
2018-07-21T17:21:21.088Z,5.73
2018-07-21T17:23:26.083Z,5.00
2018-07-21T17:25:31.433Z,5.60
2018-07-21T17:27:36.556Z,6.03
2018-07-21T17:29:41.345Z,6.63
2018-07-21T17:31:46.106Z,5.80
2018-07-21T17:33:50.738Z,5.70
2018-07-21T17:35:55.357Z,5.50
2018-07-21T17:38:00.597Z,5.33
2018-07-21T17:40:05.333Z,5.97
2018-07-21T17:42:10.332Z,5.60
2018-07-21T17:44:14.836Z,5.77
2018-07-21T17:46:19.475Z,5.57
2018-07-21T17:48:24.098Z,4.73
2018-07-21T17:50:28.685Z,4.80
2018-07-21T17:52:33.189Z,5.30
2018-07-21T17:54:37.707Z,4.63
2018-07-21T17:56:43.121Z,4.90
2018-07-21T17:58:48.611Z,4.80
2018-07-21T18:00:54.244Z,4.17
2018-07-21T18:02:59.087Z,4.17
2018-07-21T18:05:03.951Z,5.10
2018-07-21T18:07:08.972Z,4.60
2018-07-21T18:09:13.517Z,4.20
2018-07-21T18:11:18.129Z,4.20
2018-07-21T18:13:22.787Z,4.33
2018-07-21T18:15:27.384Z,4.50
2018-07-21T18:17:31.957Z,4.70
2018-07-21T18:19:36.588Z,4.90
2018-07-21T18:21:41.145Z,5.07
2018-07-21T18:23:45.702Z,5.00
2018-07-21T18:25:50.315Z,4.40
2018-07-21T18:27:54.565Z,4.20
2018-07-21T18:29:59.184Z,3.90
2018-07-21T18:32:03.797Z,3.60
2018-07-21T18:34:08.792Z,3.60
2018-07-21T18:36:13.390Z,3.77
2018-07-21T18:38:17.901Z,3.53
2018-07-21T18:40:22.580Z,3.23
2018-07-21T18:42:27.100Z,3.40
2018-07-21T18:44:31.642Z,3.50
2018-07-21T18:46:36.569Z,3.80
2018-07-21T18:48:41.341Z,3.57
2018-07-21T18:50:45.887Z,4.50
2018-07-21T18:52:50.435Z,4.40
2018-07-21T18:54:54.981Z,4.10
2018-07-21T18:56:59.607Z,4.07
2018-07-21T18:59:04.176Z,4.20
2018-07-21T19:01:09.343Z,3.90
2018-07-21T19:03:13.806Z,4.30
2018-07-21T19:05:18.435Z,4.30
2018-07-21T19:07:22.618Z,4.23
2018-07-21T19:09:26.948Z,4.27
2018-07-21T19:11:32.328Z,3.97
2018-07-21T19:13:37.676Z,3.63
2018-07-21T19:15:47.580Z,4.70
2018-07-21T19:17:52.970Z,4.20
2018-07-21T19:20:02.691Z,3.90
2018-07-21T19:22:07.533Z,3.87
2018-07-21T19:24:12.385Z,3.20
2018-07-21T19:26:22.453Z,3.30
2018-07-21T19:28:27.341Z,3.27
2018-07-21T19:30:31.855Z,3.10
2018-07-21T19:32:41.798Z,3.20
2018-07-21T19:34:47.311Z,3.23
2018-07-21T19:36:54.866Z,3.30
2018-07-21T19:38:59.417Z,3.30
2018-07-21T19:41:09.401Z,3.40
2018-07-21T19:43:14.367Z,3.80
2018-07-21T19:45:19.495Z,3.50
2018-07-21T19:47:24.217Z,3.20
2018-07-21T19:49:28.857Z,3.53
2018-07-21T19:51:33.920Z,3.13
2018-07-21T19:53:38.453Z,3.80
2018-07-21T19:55:42.976Z,3.30
2018-07-21T19:57:47.743Z,3.00
2018-07-21T19:59:52.268Z,3.17
2018-07-21T20:01:56.762Z,2.80
2018-07-21T20:04:01.478Z,3.13
2018-07-21T20:06:06.029Z,3.00
2018-07-21T20:08:10.657Z,3.70
2018-07-21T20:10:15.209Z,2.97
2018-07-21T20:12:19.901Z,3.90
2018-07-21T20:14:24.380Z,3.67
2018-07-21T20:16:29.609Z,3.07
2018-07-21T20:18:34.270Z,3.77
2018-07-21T20:20:38.745Z,3.37
2018-07-21T20:22:43.339Z,3.93
2018-07-21T20:24:47.830Z,3.13
2018-07-21T20:26:52.766Z,3.13
2018-07-21T20:28:57.280Z,3.90
2018-07-21T20:31:01.923Z,6.00
2018-07-21T20:33:06.750Z,5.13
2018-07-21T20:35:11.270Z,4.13
2018-07-21T20:37:15.798Z,4.70
2018-07-21T20:39:20.478Z,3.80
2018-07-21T20:41:25.119Z,3.77
2018-07-21T20:43:29.961Z,4.13
2018-07-21T20:45:34.662Z,3.67
2018-07-21T20:47:39.175Z,3.50
2018-07-21T20:49:43.869Z,4.33
2018-07-21T20:51:48.491Z,4.23
2018-07-21T20:53:53.186Z,3.87
2018-07-21T20:55:58.086Z,3.40
2018-07-21T20:58:03.427Z,3.80
2018-07-21T21:00:08.637Z,4.00
2018-07-21T21:02:13.115Z,3.47
2018-07-21T21:04:17.784Z,3.30
2018-07-21T21:06:23.734Z,3.73
2018-07-21T21:08:28.314Z,4.30
2018-07-21T21:10:32.904Z,4.27
2018-07-21T21:12:38.869Z,3.90
2018-07-21T21:14:43.412Z,4.23
2018-07-21T21:16:50.402Z,4.40
2018-07-21T21:18:56.244Z,4.33
2018-07-21T21:21:02.525Z,4.63
2018-07-21T21:23:08.114Z,3.87
2018-07-21T21:25:12.930Z,4.50
2018-07-21T21:27:17.669Z,4.10
2018-07-21T21:29:22.465Z,3.80
2018-07-21T21:31:28.293Z,4.10
2018-07-21T21:33:33.022Z,4.73
2018-07-21T21:35:39.770Z,3.97
2018-07-21T21:37:46.104Z,4.73
2018-07-21T21:39:51.372Z,4.17
2018-07-21T21:41:56.065Z,4.53
2018-07-21T21:44:00.921Z,5.33
2018-07-21T21:46:06.087Z,4.77
2018-07-21T21:48:10.967Z,4.60
2018-07-21T21:50:15.589Z,5.20
2018-07-21T21:52:20.469Z,5.73
2018-07-21T21:54:25.073Z,5.57
2018-07-21T21:56:29.538Z,5.63
2018-07-21T21:58:34.091Z,5.40
2018-07-21T22:01:15.900Z,5.63
2018-07-21T22:03:20.431Z,5.50
2018-07-21T22:05:25.048Z,5.43
2018-07-21T22:07:29.616Z,4.87
2018-07-21T22:09:35.249Z,4.97
2018-07-21T22:11:39.833Z,4.43
2018-07-21T22:13:44.373Z,5.47
2018-07-21T22:15:48.877Z,5.67
2018-07-21T22:17:53.344Z,5.20
2018-07-21T22:19:57.867Z,5.43
2018-07-21T22:22:02.334Z,6.20
2018-07-21T22:24:06.932Z,6.37
2018-07-21T22:26:11.542Z,5.67
2018-07-21T22:28:16.063Z,6.10
2018-07-21T22:30:21.531Z,5.10
2018-07-21T22:32:26.024Z,5.70
2018-07-21T22:34:30.636Z,5.73
2018-07-21T22:36:35.169Z,6.17
2018-07-21T22:38:39.771Z,5.70
2018-07-21T22:40:44.318Z,5.93
2018-07-21T22:42:48.813Z,6.83
2018-07-21T22:44:53.330Z,6.63
2018-07-21T22:46:58.073Z,6.30
2018-07-21T22:49:02.611Z,7.00
2018-07-21T22:51:07.246Z,6.20
2018-07-21T22:53:11.729Z,7.10
2018-07-21T22:55:16.302Z,6.60
2018-07-21T22:57:20.795Z,7.40
2018-07-21T22:59:25.300Z,6.57
2018-07-21T23:01:29.810Z,7.10
2018-07-21T23:03:34.363Z,6.50
2018-07-21T23:05:38.956Z,6.80
2018-07-21T23:07:43.380Z,7.80
2018-07-21T23:09:47.820Z,6.23
2018-07-21T23:11:52.365Z,6.83
2018-07-21T23:13:56.861Z,7.43
2018-07-21T23:16:01.331Z,7.97
2018-07-21T23:18:05.835Z,7.67
2018-07-21T23:20:10.345Z,7.33
2018-07-21T23:22:14.909Z,8.40
2018-07-21T23:24:19.421Z,8.13
2018-07-21T23:26:23.905Z,9.60
2018-07-21T23:28:28.403Z,8.30
2018-07-21T23:30:32.936Z,7.20
2018-07-21T23:32:37.559Z,8.27
2018-07-21T23:34:42.062Z,8.40
2018-07-21T23:36:47.355Z,8.00
2018-07-21T23:38:51.814Z,7.23
2018-07-21T23:40:56.331Z,6.80
2018-07-21T23:43:00.866Z,5.90
2018-07-21T23:45:05.842Z,6.10
2018-07-21T23:47:10.377Z,6.10
2018-07-21T23:49:15.016Z,7.00
2018-07-21T23:51:20.229Z,6.30
2018-07-21T23:53:24.706Z,6.23
2018-07-21T23:55:29.224Z,6.93
2018-07-21T23:57:33.745Z,5.67
2018-07-21T23:59:38.313Z,6.80
